Airfield :
LOGIN :

Register | Disclaimer

   EN    FR    IT 

 










Legend :    VFR   Marginal VFR   IFR   Intensive IFR   Very Intensive IFR
Visi :
Ceiling :
>= 8 km
>= 3000ft
5 to 8 km
1000 to 3000 ft
1500m to 5 km
500 to 1000 ft
800 to 1500m
200 to 500 ft
< 800m
< 200 ft
Symbols :   Thunderstorms  Fog  Heavy snow  Heavy precipitations  Wind > 20 kt
SIGMETs :     Misc.  Thunderstorms  Icing  Turbulence  Mountain Waves  Volcanic Ashes






- Airport Elevation : 348 ft
- IATA code : LDV


LFRJ - Landivisiau

CURRENT METAR :
  • 271100Z AUTO 28013KT 5000 -RA BR FEW007 BKN011 BKN018 14/14 Q1010 NOSIG

EXPIRED METARs :
  • 271030Z AUTO 28015KT 9999 BKN020 BKN027 BKN041 16/12 Q1010 BECMG 29010G20KT OVC012
  • 271000Z AUTO 29015KT 9999 SCT026 SCT034 BKN041 16/12 Q1010 BECMG 29010G20KT OVC012
  • 270930Z AUTO 28013KT 250V310 9999 BKN022 BKN036 BKN042 16/12 Q1010 BECMG OVC012
  • 270900Z AUTO 26010KT 240V300 9999 SCT023 BKN031 OVC043 15/11 Q1011 NOSIG
  • 270830Z AUTO 26008KT 230V290 9999 BKN029 OVC047 14/11 Q1011 NOSIG
  • 270800Z AUTO 26008KT 9999 SCT034 OVC042 14/10 Q1011 NOSIG

TAF TAF LFRJ
Valid from the 27 at 09:00 until the 27 at 18:00 UTC


270800Z 2709/2718 26008KT 9999 SCT035
BECMG 2709/2711 29010G20KT
BECMG 2711/2713 OVC012
TEMPO 2713/2718 2000 RA BKN005
TEMPO 2715/2718 29020G30KT



MET'MAP, your aeronautical weather chart ! - Copyright ORBIFLY December 2007 - Disclaimer

ORBIFLY MET'MAP TEAM :

Programming & Development : Alexandra Zaïnal
Original concept : Baudouin d'Aumeries
Technical & hardware support : Manuel Goepfert
Assistance : Marc-Olivier Méhu




SOURCES & CREDITS :

   NOAA